Terminal Aerodrome Forecast
Issued by NWS

Home | Current Version | Previous Version | Text Only | Print | Product List | Glossary On
Versions: 1 2 3 4 5 6 7 8 9 10 11 12 13 14 15 16 17 18 19 20 21 22 23 24 25 26 27 28 29 30 31 32
941
FTUS43 KLOT 281740
TAFORD
TAF
KORD 281740Z 2818/2924 08009KT P6SM SCT030 SCT250
     FM290400 08003KT 5SM BR FEW005 SCT250
     FM291400 09007KT P6SM SCT030 SCT250=

USA.gov is the U.S. government's official web portal to all federal, state and local government web resources and services.